Terminal Aerodrome Forecast
Issued by NWS

Home | Current Version | Previous Version | Graphics & Text | Print | Product List | Glossary On
Versions: 1 2 3 4 5 6 7 8 9 10 11 12
473
FTUS43 KMPX 182330
TAFRWF
TAF
KRWF 182330Z 1900/1924 32014G21KT P6SM SKC
     FM190700 29009KT P6SM SCT250
     FM191400 23007KT P6SM BKN250=

USA.gov is the U.S. government's official web portal to all federal, state and local government web resources and services.